Time;durP1;ratioP1;P1;durP2;ratioP2;P2;SDS_P1;SDS_P2;PMS_P1;PMS_P2;Temp;Humidity;BMP_temperature;BMP_pressure;BME280_temperature;BME280_humidity;BME280_pressure;Samples;Min_cycle;Max_cycle;Signal;HPM_P1;HPM_P2
2023/07/09 04:31:30;;;;;;;5.45;1.80;;;20.90;70.40;;;;;;5377907;23;20056;-74
2023/07/09 04:33:56;;;;;;;6.30;1.48;;;21.00;70.20;;;;;;4906592;29;20035;-74
2023/07/09 04:36:21;;;;;;;5.45;1.70;;;20.90;70.50;;;;;;4915727;29;20116;-74
2023/07/09 04:38:47;;;;;;;6.88;1.90;;;21.00;71.10;;;;;;4918128;29;20130;-74
2023/07/09 04:41:12;;;;;;;7.22;2.00;;;20.90;71.20;;;;;;4917847;29;20047;-75
2023/07/09 04:43:38;;;;;;;6.07;1.95;;;20.90;71.40;;;;;;4901148;29;20115;-74
2023/07/09 04:46:04;;;;;;;7.07;2.10;;;20.90;71.30;;;;;;4918531;29;20032;-74
2023/07/09 04:48:29;;;;;;;6.95;1.70;;;21.00;71.00;;;;;;4917933;29;20144;-75
2023/07/09 04:50:55;;;;;;;6.13;1.65;;;20.90;71.50;;;;;;4900362;29;20028;-74
2023/07/09 04:53:20;;;;;;;7.18;1.92;;;20.90;71.20;;;;;;4917238;29;20505;-75
2023/07/09 04:55:46;;;;;;;4.13;2.20;;;20.80;72.00;;;;;;4918285;29;20096;-74
2023/07/09 04:58:12;;;;;;;4.53;1.80;;;20.90;72.10;;;;;;4917674;29;20043;-74
2023/07/09 05:00:37;;;;;;;8.90;1.90;;;20.90;72.00;;;;;;4917346;29;20055;-74
2023/07/09 05:03:03;;;;;;;5.75;1.75;;;20.80;72.20;;;;;;4925399;29;20079;-74
2023/07/09 05:05:28;;;;;;;7.95;2.13;;;20.90;71.80;;;;;;4935580;29;20091;-74
2023/07/09 05:07:54;;;;;;;4.80;1.60;;;20.80;72.40;;;;;;4940494;29;20034;-74
2023/07/09 05:10:20;;;;;;;7.35;2.40;;;20.80;72.90;;;;;;4950560;29;20023;-74
2023/07/09 05:12:54;;;;;;;6.13;2.30;;;20.80;72.80;;;;;;4921132;29;20058;-74
2023/07/09 05:15:21;;;;;;;5.40;1.90;;;20.80;72.90;;;;;;4920019;29;20032;-74
2023/07/09 05:17:47;;;;;;;6.82;1.92;;;20.80;73.20;;;;;;4923537;29;20025;-74
2023/07/09 05:20:14;;;;;;;5.57;2.10;;;20.80;73.40;;;;;;4921393;29;20023;-74
2023/07/09 05:22:40;;;;;;;6.45;2.58;;;20.70;73.50;;;;;;4921064;29;20481;-74
2023/07/09 05:25:06;;;;;;;6.38;1.92;;;20.80;73.30;;;;;;4921380;29;20138;-74
2023/07/09 05:27:32;;;;;;;6.32;2.03;;;20.80;73.00;;;;;;4921080;29;20035;-74
2023/07/09 05:29:58;;;;;;;6.72;1.58;;;20.80;73.60;;;;;;4921097;29;20028;-74
2023/07/09 05:32:24;;;;;;;7.18;1.95;;;20.80;72.90;;;;;;4916119;29;20048;-74
2023/07/09 05:34:49;;;;;;;4.60;1.83;;;20.80;72.80;;;;;;4939722;29;20501;-74
2023/07/09 05:37:15;;;;;;;5.30;1.70;;;20.90;72.50;;;;;;4939699;29;20405;-74
2023/07/09 05:39:41;;;;;;;6.65;1.90;;;21.00;72.10;;;;;;4928164;29;20040;-75
2023/07/09 05:42:07;;;;;;;4.70;1.63;;;21.00;72.20;;;;;;4923082;29;20084;-74
2023/07/09 05:44:32;;;;;;;6.00;1.85;;;20.90;72.80;;;;;;4903474;29;20498;-74
2023/07/09 05:46:58;;;;;;;5.72;1.90;;;20.90;72.90;;;;;;4920613;29;20036;-74
2023/07/09 05:49:24;;;;;;;7.78;2.13;;;20.80;73.10;;;;;;4920651;29;20044;-74
2023/07/09 05:51:49;;;;;;;6.22;1.85;;;20.80;73.20;;;;;;4920407;29;20025;-74
2023/07/09 05:54:15;;;;;;;9.00;2.10;;;20.80;73.60;;;;;;4903960;29;20504;-74
2023/07/09 05:56:41;;;;;;;5.70;1.60;;;20.80;73.70;;;;;;4903647;29;20723;-74
2023/07/09 05:59:06;;;;;;;17.52;2.22;;;20.80;72.90;;;;;;4920724;29;20119;-74
2023/07/09 06:01:32;;;;;;;6.57;1.92;;;20.80;73.30;;;;;;4921171;29;20032;-74
2023/07/09 06:03:58;;;;;;;8.15;1.90;;;20.90;73.20;;;;;;4929309;29;20478;-75
2023/07/09 06:06:23;;;;;;;4.47;1.65;;;20.90;72.60;;;;;;4930297;29;20038;-74
2023/07/09 06:08:53;;;;;;;8.13;1.42;;;21.00;72.60;;;;;;4914532;29;20118;-90
2023/07/09 06:11:22;;;;;;;6.28;1.95;;;21.10;72.80;;;;;;4913629;29;20024;-89
2023/07/09 06:13:50;;;;;;;9.18;1.80;;;21.20;72.30;;;;;;4931250;29;20035;-87
2023/07/09 06:16:17;;;;;;;5.45;1.70;;;21.20;71.90;;;;;;4910930;29;20063;-83
2023/07/09 06:18:43;;;;;;;5.70;2.10;;;21.30;71.80;;;;;;4930984;29;20127;-76
2023/07/09 06:21:17;;;;;;;4.78;1.52;;;21.30;71.70;;;;;;4933850;29;20029;-85
2023/07/09 06:23:44;;;;;;;6.20;1.80;;;21.30;71.60;;;;;;4925862;29;20047;-84
2023/07/09 06:26:10;;;;;;;10.43;1.92;;;21.30;71.70;;;;;;4919653;29;20023;-81
2023/07/09 06:28:39;;;;;;;6.47;2.10;;;21.20;71.70;;;;;;4907672;29;20123;-82
2023/07/09 06:31:04;;;;;;;5.28;2.03;;;21.10;72.00;;;;;;4921072;29;20076;-81
2023/07/09 06:33:30;;;;;;;6.22;1.80;;;21.10;72.10;;;;;;4938905;29;20490;-79
2023/07/09 06:36:01;;;;;;;7.07;1.80;;;21.10;72.40;;;;;;4921743;29;20035;-77
2023/07/09 06:38:28;;;;;;;7.45;2.13;;;21.20;72.20;;;;;;4938605;29;20042;-85
2023/07/09 06:41:20;;;;;;;6.93;1.98;;;21.30;72.10;;;;;;4924540;29;20035;-81
2023/07/09 06:44:01;;;;;;;5.38;1.80;;;21.30;72.10;;;;;;4910979;29;20040;-88
2023/07/09 06:46:27;;;;;;;4.70;1.90;;;21.30;72.40;;;;;;4900932;29;20038;-87
2023/07/09 06:48:53;;;;;;;7.63;1.80;;;21.20;72.60;;;;;;4909838;29;20390;-84
2023/07/09 06:51:18;;;;;;;7.07;1.90;;;21.30;72.40;;;;;;4909644;29;20115;-89
2023/07/09 06:53:47;;;;;;;8.32;1.95;;;21.30;72.50;;;;;;4914418;29;20130;-89
2023/07/09 06:56:13;;;;;;;6.25;1.70;;;21.30;72.50;;;;;;4937183;29;20024;-88
2023/07/09 06:58:39;;;;;;;7.55;1.95;;;21.30;72.60;;;;;;4911999;29;20050;-80
2023/07/09 07:01:05;;;;;;;9.00;2.83;;;21.40;72.10;;;;;;4919500;29;20034;-82
2023/07/09 07:03:32;;;;;;;7.18;1.95;;;21.50;72.10;;;;;;4921720;29;20028;-80
2023/07/09 07:05:58;;;;;;;10.80;2.47;;;21.50;71.80;;;;;;4939323;29;20023;-90
2023/07/09 07:08:25;;;;;;;8.32;2.33;;;21.40;72.40;;;;;;4921987;29;20494;-91
2023/07/09 07:11:02;;;;;;;6.50;1.90;;;21.40;72.50;;;;;;4910546;29;20395;-91
2023/07/09 07:13:39;;;;;;;6.65;2.10;;;21.30;72.70;;;;;;4918799;29;20103;-88
2023/07/09 07:16:08;;;;;;;8.48;1.95;;;21.30;73.10;;;;;;4935353;29;20071;-89
2023/07/09 07:18:34;;;;;;;6.10;1.98;;;21.30;73.40;;;;;;4920465;29;20035;-87
2023/07/09 07:21:00;;;;;;;6.00;1.90;;;21.20;73.80;;;;;;4918968;29;20047;-87
2023/07/09 07:23:26;;;;;;;5.40;1.90;;;21.20;73.90;;;;;;4921584;29;20127;-86
2023/07/09 07:25:52;;;;;;;6.93;1.92;;;21.30;73.80;;;;;;4921088;29;20040;-87
2023/07/09 07:28:18;;;;;;;5.95;1.90;;;21.20;73.90;;;;;;4901725;29;20414;-85
2023/07/09 07:30:44;;;;;;;8.73;1.90;;;21.30;73.70;;;;;;4917473;29;20044;-83
2023/07/09 07:33:16;;;;;;;8.10;2.00;;;21.30;73.70;;;;;;4902401;29;20036;-84
2023/07/09 07:35:41;;;;;;;7.20;2.45;;;21.30;73.60;;;;;;4916183;29;20063;-86
2023/07/09 07:38:07;;;;;;;5.18;1.95;;;21.50;73.10;;;;;;4904464;29;20440;-86
2023/07/09 07:40:33;;;;;;;6.03;2.05;;;21.50;73.00;;;;;;4918575;29;20024;-86
2023/07/09 07:42:58;;;;;;;6.85;2.20;;;21.70;72.60;;;;;;4901823;29;20032;-85
2023/07/09 07:45:24;;;;;;;6.13;1.98;;;21.80;72.30;;;;;;4919082;29;20470;-88
2023/07/09 07:47:52;;;;;;;6.45;2.08;;;21.70;72.10;;;;;;4906294;29;20042;-82
2023/07/09 07:50:18;;;;;;;5.57;2.00;;;21.60;72.40;;;;;;4918615;29;20028;-84
2023/07/09 07:53:02;;;;;;;4.88;1.95;;;21.70;72.50;;;;;;4922613;29;20115;-84
2023/07/09 07:55:28;;;;;;;7.22;2.08;;;21.70;72.50;;;;;;4902082;29;20084;-87
2023/07/09 07:57:53;;;;;;;9.38;2.50;;;21.70;73.00;;;;;;4933214;29;20031;-86
2023/07/09 08:00:19;;;;;;;6.80;2.08;;;21.70;73.20;;;;;;4936944;29;20024;-87
2023/07/09 08:02:45;;;;;;;10.52;2.35;;;21.70;73.20;;;;;;4921135;29;20495;-87
2023/07/09 08:05:10;;;;;;;6.95;1.85;;;21.60;73.40;;;;;;4935291;29;20443;-89
2023/07/09 08:07:36;;;;;;;7.35;2.20;;;21.70;73.30;;;;;;4921725;29;20087;-91
2023/07/09 08:10:02;;;;;;;6.43;1.80;;;21.70;73.30;;;;;;4920563;29;20063;-87
2023/07/09 08:12:27;;;;;;;5.85;2.22;;;21.90;72.40;;;;;;4904393;29;20047;-89
2023/07/09 08:14:53;;;;;;;9.77;2.55;;;22.20;72.30;;;;;;4919790;29;20467;-89
2023/07/09 08:17:19;;;;;;;6.38;2.20;;;22.50;71.40;;;;;;4938352;29;20051;-88
2023/07/09 08:19:53;;;;;;;8.80;2.22;;;22.70;71.10;;;;;;4937707;29;20056;-84
2023/07/09 08:22:22;;;;;;;8.38;2.15;;;22.70;70.40;;;;;;4937642;29;20409;-87
2023/07/09 08:24:51;;;;;;;8.10;2.63;;;22.80;69.90;;;;;;4921206;29;20131;-81
2023/07/09 08:27:17;;;;;;;7.43;2.60;;;22.90;69.30;;;;;;4923873;29;20032;-88
2023/07/09 08:29:43;;;;;;;8.52;2.40;;;22.80;69.60;;;;;;4933456;29;20495;-87
2023/07/09 08:32:10;;;;;;;6.20;2.22;;;22.60;69.20;;;;;;4930786;29;20051;-90
2023/07/09 08:34:38;;;;;;;7.32;3.13;;;22.60;69.30;;;;;;4908524;29;20088;-87
2023/07/09 08:37:04;;;;;;;5.05;2.67;;;22.60;69.70;;;;;;4928486;29;20093;-78
2023/07/09 08:39:30;;;;;;;8.30;2.88;;;22.40;69.50;;;;;;4907759;29;20139;-83
2023/07/09 08:42:08;;;;;;;9.27;2.63;;;22.30;69.90;;;;;;4910112;29;20067;-85
2023/07/09 08:44:58;;;;;;;6.68;2.30;;;22.40;70.40;;;;;;4922854;29;20028;-89
2023/07/09 08:47:48;;;;;;;7.55;2.30;;;22.50;70.40;;;;;;4917882;29;20459;-88
2023/07/09 08:50:22;;;;;;;8.23;2.45;;;22.40;70.50;;;;;;4910666;29;20111;-89
2023/07/09 08:52:52;;;;;;;9.05;2.72;;;22.30;71.30;;;;;;4934255;29;20032;-87
2023/07/09 08:55:25;;;;;;;8.02;2.35;;;22.20;71.80;;;;;;4926899;29;20028;-86
2023/07/09 08:58:02;;;;;;;7.47;2.13;;;22.20;72.30;;;;;;4916927;29;20126;-87
2023/07/09 09:00:37;;;;;;;8.40;2.00;;;22.20;72.10;;;;;;4920836;29;20092;-86
2023/07/09 09:03:12;;;;;;;8.10;2.13;;;22.20;71.60;;;;;;4930086;29;20406;-85
2023/07/09 09:05:48;;;;;;;6.60;1.88;;;22.30;71.90;;;;;;4916254;29;20092;-88
2023/07/09 09:08:42;;;;;;;8.43;2.10;;;22.30;72.20;;;;;;4925043;29;20055;-85
2023/07/09 09:11:18;;;;;;;5.40;1.77;;;22.40;71.90;;;;;;4932454;29;20038;-80
2023/07/09 09:13:45;;;;;;;11.05;2.63;;;22.30;72.30;;;;;;4925609;29;20032;-89
2023/07/09 09:16:33;;;;;;;6.65;1.75;;;22.40;71.80;;;;;;4913375;29;20024;-79
2023/07/09 09:19:05;;;;;;;6.72;1.90;;;22.30;70.80;;;;;;4939380;29;20043;-84
2023/07/09 09:21:33;;;;;;;;;;;22.40;71.40;;;;;;4918437;29;20030;-89
2023/07/09 09:24:19;;;;;;;6.45;1.65;;;22.40;71.40;;;;;;4915124;29;19967;-87
2023/07/09 09:26:46;;;;;;;12.25;2.47;;;22.50;71.50;;;;;;4920380;29;20044;-87
2023/07/09 09:29:14;;;;;;;4.32;1.88;;;22.60;71.60;;;;;;4904539;29;20131;-87
2023/07/09 09:31:42;;;;;;;7.43;1.77;;;22.70;71.50;;;;;;4927064;29;20446;-87
2023/07/09 09:34:19;;;;;;;7.45;1.90;;;22.70;70.60;;;;;;4939194;29;20846;-86
2023/07/09 09:36:44;;;;;;;9.50;3.65;;;22.80;70.30;;;;;;4918730;29;20059;-87
2023/07/09 09:39:10;;;;;;;7.38;1.90;;;23.00;70.10;;;;;;4922725;29;20031;-88
2023/07/09 09:41:37;;;;;;;9.45;2.22;;;22.90;69.70;;;;;;4920571;29;20036;-87
2023/07/09 09:44:04;;;;;;;6.53;1.90;;;22.90;70.10;;;;;;4904013;29;20031;-89
2023/07/09 09:46:32;;;;;;;11.15;1.80;;;22.90;69.90;;;;;;4903773;29;20036;-87
2023/07/09 09:49:03;;;;;;;6.82;1.80;;;23.00;70.40;;;;;;4920553;29;20032;-87
2023/07/09 09:51:29;;;;;;;8.10;1.70;;;22.90;69.70;;;;;;4912632;29;20035;-88
2023/07/09 09:54:01;;;;;;;6.07;1.83;;;22.80;69.90;;;;;;4939480;29;20364;-89
2023/07/09 09:56:33;;;;;;;7.60;2.58;;;22.80;70.10;;;;;;4939289;29;20035;-88
2023/07/09 09:59:00;;;;;;;4.80;1.90;;;22.80;69.80;;;;;;4933591;29;20502;-88
2023/07/09 10:01:34;;;;;;;10.45;2.95;;;22.90;69.30;;;;;;4920416;29;20020;-89
2023/07/09 10:04:02;;;;;;;9.48;2.35;;;23.10;69.80;;;;;;4907113;29;20498;-88
2023/07/09 10:06:38;;;;;;;8.25;2.13;;;23.20;69.40;;;;;;4939163;29;20027;-87
2023/07/09 10:09:32;;;;;;;6.00;1.67;;;23.30;69.50;;;;;;4931090;29;20123;-89
2023/07/09 10:12:08;;;;;;;6.18;1.70;;;23.80;68.80;;;;;;4936200;29;20036;-88
2023/07/09 10:14:51;;;;;;;7.13;1.67;;;24.80;67.80;;;;;;4938857;29;20066;-89
2023/07/09 10:17:20;;;;;;;5.78;1.60;;;25.00;64.80;;;;;;4920093;29;20455;-88
2023/07/09 10:19:57;;;;;;;5.85;1.83;;;24.90;64.70;;;;;;4917887;29;20035;-88
2023/07/09 10:22:45;;;;;;;10.45;2.20;;;24.60;64.20;;;;;;4921444;29;20402;-86
2023/07/09 10:25:19;;;;;;;11.05;2.13;;;24.30;64.60;;;;;;4938641;29;20384;-88
2023/07/09 10:28:02;;;;;;;6.03;1.95;;;24.00;65.70;;;;;;4938927;29;20059;-88
2023/07/09 10:30:55;;;;;;;5.30;2.70;;;23.80;66.30;;;;;;4910020;29;20388;-89
2023/07/09 10:33:37;;;;;;;9.43;2.88;;;23.50;66.90;;;;;;4932182;29;20055;-88
2023/07/09 10:36:19;;;;;;;8.18;3.55;;;23.40;68.20;;;;;;4919915;29;20032;-89
2023/07/09 10:38:55;;;;;;;8.82;2.70;;;23.30;68.80;;;;;;4903875;29;20038;-88
2023/07/09 10:41:22;;;;;;;7.05;2.58;;;23.30;69.60;;;;;;4937218;29;20557;-89
2023/07/09 10:44:00;;;;;;;7.85;2.60;;;23.30;70.40;;;;;;4921951;29;20091;-87
2023/07/09 10:46:34;;;;;;;6.07;2.30;;;23.30;70.40;;;;;;4934123;29;20106;-89
2023/07/09 10:49:02;;;;;;;7.13;2.13;;;23.10;70.10;;;;;;4919112;29;20148;-88
2023/07/09 10:51:44;;;;;;;7.28;1.85;;;23.00;70.10;;;;;;4902506;29;20067;-87
2023/07/09 10:54:31;;;;;;;6.57;1.98;;;23.10;70.00;;;;;;4915397;29;20047;-87
2023/07/09 10:57:05;;;;;;;4.57;1.88;;;23.00;68.10;;;;;;4919479;29;20551;-88
2023/07/09 10:59:37;;;;;;;7.95;1.92;;;23.10;69.10;;;;;;4919816;29;20185;-88
2023/07/09 11:02:21;;;;;;;4.20;1.53;;;23.10;69.00;;;;;;4919410;29;20035;-87
2023/07/09 11:04:53;;;;;;;5.90;1.67;;;23.00;69.30;;;;;;4928637;29;20024;-88
2023/07/09 11:07:27;;;;;;;6.25;2.05;;;22.90;69.10;;;;;;4924009;29;20031;-86
2023/07/09 11:09:56;;;;;;;5.38;1.85;;;22.90;69.40;;;;;;4957354;29;20569;-87
2023/07/09 11:12:38;;;;;;;6.63;2.03;;;23.00;69.20;;;;;;4918175;29;20028;-87
2023/07/09 11:15:10;;;;;;;6.30;1.80;;;23.10;70.10;;;;;;4919633;29;20443;-87
2023/07/09 11:17:39;;;;;;;;;;;23.10;70.20;;;;;;4921070;29;20034;-89
2023/07/09 11:20:18;;;;;;;4.95;1.60;;;23.00;69.30;;;;;;4938276;29;20420;-87
2023/07/09 11:22:56;;;;;;;4.53;1.70;;;22.80;69.20;;;;;;4937849;29;20031;-89
2023/07/09 11:25:43;;;;;;;5.70;1.60;;;22.80;67.10;;;;;;4924423;29;20488;-88
2023/07/09 11:28:09;;;;;;;4.43;1.63;;;22.90;67.90;;;;;;4938100;29;20559;-87
2023/07/09 11:30:47;;;;;;;5.75;1.90;;;23.00;66.70;;;;;;4936010;29;20127;-87
2023/07/09 11:33:27;;;;;;;4.07;1.50;;;23.10;66.50;;;;;;4937139;29;20086;-89
2023/07/09 11:36:06;;;;;;;6.38;2.78;;;23.10;66.70;;;;;;4928819;29;20552;-87
2023/07/09 11:38:47;;;;;;;8.20;2.70;;;23.10;66.50;;;;;;4901937;29;20059;-88
2023/07/09 11:41:37;;;;;;;5.97;2.33;;;23.10;66.40;;;;;;4902431;29;20035;-87
2023/07/09 11:44:17;;;;;;;6.55;2.17;;;22.90;66.30;;;;;;4915804;29;20040;-89
2023/07/09 11:47:14;;;;;;;6.65;2.05;;;22.90;66.80;;;;;;4902053;29;20024;-87
2023/07/09 11:49:45;;;;;;;5.78;1.63;;;22.80;67.00;;;;;;4919650;29;20042;-87
2023/07/09 11:52:10;;;;;;;4.03;1.30;;;22.70;68.00;;;;;;4918908;29;20076;-87
2023/07/09 11:54:37;;;;;;;4.88;1.83;;;22.80;67.00;;;;;;4902082;29;20036;-86
2023/07/09 11:57:10;;;;;;;5.15;1.73;;;22.90;67.40;;;;;;4919105;29;20032;-87
2023/07/09 11:59:40;;;;;;;4.05;2.00;;;23.10;66.60;;;;;;4918943;29;20124;-86
2023/07/09 12:02:16;;;;;;;5.05;2.20;;;23.20;66.40;;;;;;4921591;29;20067;-88
2023/07/09 12:04:41;;;;;;;8.68;3.65;;;23.20;65.20;;;;;;4931041;29;20083;-88
2023/07/09 12:07:14;;;;;;;7.57;3.28;;;23.30;65.30;;;;;;4942988;29;20479;-88
2023/07/09 12:09:42;;;;;;;;;;;23.40;64.60;;;;;;4905921;29;20419;-88
2023/07/09 12:12:24;;;;;;;6.78;2.40;;;23.60;64.70;;;;;;4939657;29;20719;-90
2023/07/09 12:14:50;;;;;;;6.10;1.75;;;23.60;64.20;;;;;;4923861;29;20028;-88
2023/07/09 12:17:16;;;;;;;6.32;1.88;;;23.50;64.80;;;;;;4937242;29;20040;-88
2023/07/09 12:19:42;;;;;;;4.13;1.77;;;23.30;65.50;;;;;;4905621;29;20032;-89
2023/07/09 12:22:25;;;;;;;5.20;1.75;;;23.30;65.80;;;;;;4922446;29;20448;-89
2023/07/09 12:24:53;;;;;;;5.28;2.00;;;23.20;66.80;;;;;;4921014;29;20039;-91
2023/07/09 12:27:25;;;;;;;11.00;2.10;;;23.20;66.90;;;;;;4921593;29;20061;-88
2023/07/09 12:29:56;;;;;;;6.28;2.10;;;23.40;67.80;;;;;;4915464;29;20032;-90
2023/07/09 12:32:26;;;;;;;4.75;1.73;;;23.60;67.20;;;;;;4933995;29;20534;-89
2023/07/09 12:34:53;;;;;;;7.22;2.15;;;23.90;66.90;;;;;;4924207;29;20083;-89
2023/07/09 12:37:22;;;;;;;6.53;2.17;;;24.20;66.20;;;;;;4941087;29;20028;-89
2023/07/09 12:39:51;;;;;;;7.57;2.00;;;24.60;66.90;;;;;;4939252;29;20070;-89
2023/07/09 12:42:32;;;;;;;6.07;2.08;;;24.70;64.40;;;;;;4923314;29;20036;-90
2023/07/09 12:44:58;;;;;;;7.63;2.00;;;25.00;64.80;;;;;;4941157;29;20078;-90
2023/07/09 12:47:25;;;;;;;5.05;2.10;;;25.30;63.30;;;;;;4923761;29;20023;-90
2023/07/09 12:49:59;;;;;;;3.80;1.70;;;25.60;64.00;;;;;;4924034;29;20064;-90
2023/07/09 12:52:25;;;;;;;6.43;2.03;;;25.70;62.70;;;;;;4940611;29;20035;-89
2023/07/09 12:54:58;;;;;;;5.13;1.90;;;25.60;60.80;;;;;;4940986;29;20193;-88
2023/07/09 12:57:25;;;;;;;6.60;1.90;;;25.60;61.20;;;;;;4940922;29;20136;-88
2023/07/09 12:59:51;;;;;;;6.13;1.83;;;25.50;59.30;;;;;;4919904;29;20032;-89
2023/07/09 13:02:24;;;;;;;5.43;1.70;;;25.60;59.40;;;;;;4913481;29;20052;-91
2023/07/09 13:04:58;;;;;;;5.53;1.80;;;25.70;59.80;;;;;;4923484;29;20510;-90
2023/07/09 13:07:23;;;;;;;4.38;1.40;;;25.70;58.70;;;;;;4927850;29;20023;-89
2023/07/09 13:09:50;;;;;;;6.15;1.55;;;25.80;58.60;;;;;;4959726;29;20031;-89
2023/07/09 13:12:16;;;;;;;3.75;1.58;;;25.70;55.50;;;;;;4934578;29;20032;-91
2023/07/09 13:14:41;;;;;;;5.05;1.27;;;25.60;54.60;;;;;;4904562;29;20039;-89
2023/07/09 13:17:09;;;;;;;4.45;1.27;;;25.50;54.70;;;;;;4904812;29;20071;-91
2023/07/09 13:19:35;;;;;;;5.13;1.40;;;25.50;53.70;;;;;;4905058;29;20047;-89
2023/07/09 13:22:01;;;;;;;4.00;1.20;;;25.50;53.70;;;;;;4912201;29;20110;-90
2023/07/09 13:24:32;;;;;;;3.70;1.25;;;25.50;53.80;;;;;;4923803;29;20127;-91
2023/07/09 13:26:59;;;;;;;4.53;1.42;;;25.50;53.70;;;;;;4920645;29;20039;-91
2023/07/09 13:29:27;;;;;;;5.10;1.48;;;25.50;53.90;;;;;;4926233;29;20214;-90
2023/07/09 13:31:53;;;;;;;5.00;1.40;;;25.50;54.50;;;;;;4918192;29;20056;-90
2023/07/09 13:34:25;;;;;;;2.97;1.42;;;25.60;54.90;;;;;;4920743;29;20032;-90
2023/07/09 13:36:53;;;;;;;6.07;1.37;;;25.70;52.80;;;;;;4921841;29;20032;-91
2023/07/09 13:39:20;;;;;;;5.47;1.60;;;25.80;53.20;;;;;;4919902;29;20090;-90
2023/07/09 13:41:48;;;;;;;4.82;1.40;;;26.00;53.60;;;;;;4923610;29;20118;-90
2023/07/09 13:44:21;;;;;;;3.58;1.38;;;26.00;53.30;;;;;;4923508;29;20027;-91
2023/07/09 13:46:47;;;;;;;5.50;1.92;;;26.10;53.10;;;;;;4920409;29;20028;-91
2023/07/09 13:49:17;;;;;;;5.20;1.35;;;26.20;51.90;;;;;;4904249;29;20510;-90
2023/07/09 13:51:47;;;;;;;5.75;1.35;;;26.30;50.80;;;;;;4904328;29;20079;-89
2023/07/09 13:54:31;;;;;;;3.67;1.10;;;26.30;49.90;;;;;;4920832;29;20036;-92
2023/07/09 13:56:57;;;;;;;4.30;1.70;;;26.30;48.90;;;;;;4903830;29;20036;-90
2023/07/09 13:59:25;;;;;;;4.18;1.35;;;26.30;48.40;;;;;;4904516;29;20034;-90
2023/07/09 14:01:54;;;;;;;6.03;1.27;;;26.50;50.40;;;;;;4920959;29;20119;-91
2023/07/09 14:04:21;;;;;;;4.63;1.38;;;26.50;49.10;;;;;;4909289;29;20042;-91
2023/07/09 14:06:47;;;;;;;4.70;1.40;;;26.50;49.10;;;;;;4940234;29;20042;-91
2023/07/09 14:09:14;;;;;;;5.43;1.30;;;26.30;48.80;;;;;;4941264;29;20118;-91
2023/07/09 14:11:52;;;;;;;6.25;1.30;;;26.30;49.10;;;;;;4940270;29;20038;-90
2023/07/09 14:14:30;;;;;;;5.65;1.58;;;26.00;48.80;;;;;;4904841;29;20510;-92
2023/07/09 14:16:56;;;;;;;4.30;1.15;;;26.00;48.40;;;;;;4920048;29;20058;-90
2023/07/09 14:19:23;;;;;;;3.65;1.65;;;26.00;49.50;;;;;;4923524;29;20028;-92
2023/07/09 14:21:50;;;;;;;3.65;1.25;;;26.20;48.40;;;;;;4940260;29;20028;-89
2023/07/09 14:24:28;;;;;;;4.05;1.20;;;26.30;48.80;;;;;;4922709;29;20532;-92
2023/07/09 14:26:57;;;;;;;5.22;1.25;;;26.50;47.50;;;;;;4923113;29;20118;-91
2023/07/09 14:29:24;;;;;;;5.05;1.27;;;26.80;48.80;;;;;;4922541;29;20509;-90
2023/07/09 14:31:50;;;;;;;5.03;1.60;;;26.80;48.10;;;;;;4932535;29;20151;-90
2023/07/09 14:34:29;;;;;;;6.03;1.48;;;26.70;48.90;;;;;;4932199;29;20137;-90
2023/07/09 14:36:57;;;;;;;4.55;1.40;;;26.70;47.30;;;;;;4927284;29;20059;-90
2023/07/09 14:39:25;;;;;;;5.15;1.70;;;26.70;48.30;;;;;;4903766;29;20054;-91
2023/07/09 14:41:51;;;;;;;5.53;1.30;;;26.80;48.10;;;;;;4928726;29;20039;-92
2023/07/09 14:44:30;;;;;;;5.85;1.30;;;26.80;48.60;;;;;;4939535;29;20474;-91
2023/07/09 14:46:58;;;;;;;5.57;1.27;;;26.90;47.10;;;;;;4923359;29;20079;-90
2023/07/09 14:49:25;;;;;;;5.65;1.67;;;27.00;48.20;;;;;;4920028;29;20115;-91
2023/07/09 14:51:51;;;;;;;4.70;1.27;;;27.20;48.50;;;;;;4904170;29;20055;-92
2023/07/09 14:54:26;;;;;;;4.95;1.65;;;27.30;47.30;;;;;;4903298;29;20032;-92
2023/07/09 14:56:53;;;;;;;7.75;1.67;;;27.40;47.30;;;;;;4920790;29;20036;-90
2023/07/09 14:59:19;;;;;;;6.32;1.42;;;27.40;46.90;;;;;;4920030;29;20032;-90
2023/07/09 15:01:45;;;;;;;4.32;1.23;;;27.40;47.70;;;;;;4923797;29;20446;-91
2023/07/09 15:04:30;;;;;;;4.20;1.30;;;27.50;46.60;;;;;;4938857;29;20558;-91
2023/07/09 15:06:57;;;;;;;5.22;1.45;;;27.50;45.30;;;;;;4915827;29;20095;-91
2023/07/09 15:09:25;;;;;;;5.70;1.33;;;27.60;46.80;;;;;;4958051;29;20050;-90
2023/07/09 15:11:56;;;;;;;7.20;1.42;;;27.50;46.40;;;;;;4958089;29;20038;-89
2023/07/09 15:14:22;;;;;;;5.57;1.42;;;27.10;45.70;;;;;;4926742;29;20458;-90
2023/07/09 15:16:49;;;;;;;5.97;1.33;;;26.80;45.90;;;;;;4919303;29;20036;-91
2023/07/09 15:19:16;;;;;;;5.65;1.58;;;26.80;46.50;;;;;;4925246;29;20079;-91
2023/07/09 15:21:42;;;;;;;4.82;1.60;;;26.80;46.70;;;;;;4922072;29;20514;-91
2023/07/09 15:24:30;;;;;;;5.13;1.23;;;26.70;46.40;;;;;;4921929;29;20047;-91
2023/07/09 15:26:56;;;;;;;6.05;1.35;;;26.80;46.00;;;;;;4938953;29;20031;-92
2023/07/09 15:29:23;;;;;;;3.72;1.10;;;27.00;45.60;;;;;;4907199;29;20032;-91
2023/07/09 15:31:49;;;;;;;5.82;1.35;;;27.20;44.70;;;;;;4910017;29;20062;-90
2023/07/09 15:34:15;;;;;;;5.03;1.33;;;27.30;43.60;;;;;;4936416;29;20498;-90
2023/07/09 15:36:45;;;;;;;7.32;1.40;;;27.20;43.50;;;;;;4904446;29;20024;-91
2023/07/09 15:39:11;;;;;;;3.95;1.13;;;27.10;43.50;;;;;;4921419;29;20043;-92
2023/07/09 15:41:38;;;;;;;3.95;1.20;;;26.90;43.40;;;;;;4922591;29;20047;-90
2023/07/09 15:44:04;;;;;;;5.78;1.30;;;26.70;43.20;;;;;;4913244;29;20038;-91
2023/07/09 15:46:30;;;;;;;7.07;1.23;;;26.40;42.90;;;;;;4906154;29;20482;-92
2023/07/09 15:48:56;;;;;;;5.93;1.40;;;26.30;42.80;;;;;;4914379;29;20028;-90
2023/07/09 15:51:22;;;;;;;6.53;1.30;;;26.30;43.20;;;;;;4905454;29;20024;-89
2023/07/09 15:53:48;;;;;;;4.85;1.25;;;26.40;43.30;;;;;;4917274;29;20038;-90
2023/07/09 15:56:26;;;;;;;8.27;1.35;;;26.50;43.60;;;;;;4924375;29;20058;-90
2023/07/09 15:58:53;;;;;;;5.35;1.00;;;26.70;42.30;;;;;;4923920;29;20031;-90
2023/07/09 16:01:19;;;;;;;6.82;1.33;;;26.60;41.90;;;;;;4924004;29;20020;-88
2023/07/09 16:04:08;;;;;;;4.20;1.08;;;26.40;42.60;;;;;;4939850;29;20039;-89
2023/07/09 16:06:35;;;;;;;3.55;1.10;;;26.30;42.50;;;;;;4923705;29;20035;-91
2023/07/09 16:09:00;;;;;;;6.03;1.50;;;26.60;43.20;;;;;;4957415;29;20030;-90
2023/07/09 16:11:26;;;;;;;7.30;1.50;;;26.80;42.80;;;;;;4942473;29;20027;-90
2023/07/09 16:13:53;;;;;;;3.47;1.33;;;26.70;42.60;;;;;;4920273;29;20123;-91
2023/07/09 16:16:22;;;;;;;4.03;1.00;;;26.90;42.70;;;;;;4905290;29;20032;-91
2023/07/09 16:18:48;;;;;;;4.82;1.30;;;26.70;41.50;;;;;;4916206;29;20035;-91
2023/07/09 16:21:24;;;;;;;8.30;1.13;;;26.30;41.20;;;;;;4940650;29;20058;-90
2023/07/09 16:23:51;;;;;;;3.67;1.20;;;26.30;41.70;;;;;;4924146;29;20031;-90
2023/07/09 16:26:17;;;;;;;4.45;1.13;;;26.30;41.60;;;;;;4923921;29;20027;-89
2023/07/09 16:28:43;;;;;;;3.40;1.08;;;26.10;40.80;;;;;;4910551;29;20036;-90
2023/07/09 16:31:09;;;;;;;4.82;1.08;;;26.00;41.30;;;;;;4866128;29;1199910;-90
2023/07/09 16:33:38;;;;;;;4.22;0.90;;;25.90;41.90;;;;;;4921816;29;20043;-84
2023/07/09 16:36:04;;;;;;;4.45;1.00;;;25.90;42.50;;;;;;4915145;29;20047;-80
2023/07/09 16:38:32;;;;;;;4.53;1.20;;;25.70;43.10;;;;;;4921554;29;20062;-87
2023/07/09 16:40:58;;;;;;;3.90;1.08;;;25.70;43.60;;;;;;4914956;29;20031;-79
2023/07/09 16:43:24;;;;;;;3.60;1.00;;;25.60;42.70;;;;;;4928508;29;20038;-89
2023/07/09 16:45:49;;;;;;;4.78;1.20;;;25.50;42.50;;;;;;4927785;29;20060;-89
2023/07/09 16:48:24;;;;;;;5.15;1.00;;;25.50;42.90;;;;;;4911514;29;20095;-87
2023/07/09 16:50:52;;;;;;;4.35;0.82;;;25.50;43.40;;;;;;4916220;29;20031;-89
2023/07/09 16:53:20;;;;;;;5.63;1.00;;;25.50;43.00;;;;;;4916900;29;20490;-87
2023/07/09 16:55:47;;;;;;;5.35;1.40;;;25.50;42.60;;;;;;4913714;29;20119;-87
2023/07/09 16:58:33;;;;;;;3.90;1.27;;;25.60;43.40;;;;;;4929191;29;20020;-88
2023/07/09 17:00:59;;;;;;;4.30;0.90;;;25.70;43.10;;;;;;4931876;29;20024;-80
2023/07/09 17:03:25;;;;;;;4.38;0.98;;;25.70;43.10;;;;;;4911397;29;20083;-83
2023/07/09 17:05:51;;;;;;;4.20;1.23;;;25.60;42.90;;;;;;4931922;29;20024;-84
2023/07/09 17:08:16;;;;;;;3.70;1.00;;;25.50;43.10;;;;;;4931538;29;20154;-83
2023/07/09 17:10:44;;;;;;;6.10;1.27;;;25.50;43.60;;;;;;4931066;29;20024;-82
2023/07/09 17:13:17;;;;;;;5.35;1.35;;;25.70;43.80;;;;;;4930175;29;20039;-82
2023/07/09 17:15:43;;;;;;;5.55;1.23;;;25.80;43.50;;;;;;4913834;29;20025;-81
2023/07/09 17:18:19;;;;;;;4.18;1.85;;;25.80;44.00;;;;;;4928993;29;20607;-78
2023/07/09 17:20:47;;;;;;;5.25;1.63;;;25.80;44.60;;;;;;4930740;29;20865;-80
2023/07/09 17:23:12;;;;;;;4.82;1.27;;;25.70;44.90;;;;;;4927802;29;20111;-85
2023/07/09 17:25:39;;;;;;;6.38;1.35;;;25.60;44.80;;;;;;4912394;29;20059;-84
2023/07/09 17:28:28;;;;;;;6.43;1.25;;;25.50;44.70;;;;;;4912928;29;20035;-89
2023/07/09 17:30:56;;;;;;;6.20;1.10;;;25.30;45.80;;;;;;4917410;29;20127;-79
2023/07/09 17:33:22;;;;;;;7.80;1.38;;;25.20;46.00;;;;;;4928506;29;20031;-82